Puerto del Rosario, Spain
Current Conditions -  °F | °C
As of 11:00 PM on Wednesday 28 Jan 2015 (Local Time) from GCFV Reporting Station
Broken Clouds Broken Clouds  
Wind Chill: 63°   Ceiling: 3700
Heat Index: 63°   Visibility: 6mi
Dew Point: 46°   Wind: 13mph
Humidity: 55%   Direction: 10°N
Pressure: 30.33"   Gusts: NA
Location:  28.5°N, 13.86°W
Report Text: GCFV 282300Z 01011KT 9999 BKN037 17/08 Q1027
Loading
Personal Weather Stations






























Interactive Weather Map New forecast layout! Learn more

10-Day Weather Forecast

Advertisements
Track Severe Weather on mobile